sensor_id;sensor_type;location;lat;lon;timestamp;pressure;altitude;pressure_sealevel;temperature;humidity
16331;BME280;8275;48.206;16.340;2023-03-03T00:01:42;99418.19;;;9.94;32.59
16331;BME280;8275;48.206;16.340;2023-03-03T00:04:11;99413.75;;;9.93;32.43
16331;BME280;8275;48.206;16.340;2023-03-03T00:06:39;99415.94;;;9.90;32.81
16331;BME280;8275;48.206;16.340;2023-03-03T00:09:08;99422.50;;;9.89;32.67
16331;BME280;8275;48.206;16.340;2023-03-03T00:11:37;99417.25;;;9.88;32.66
16331;BME280;8275;48.206;16.340;2023-03-03T00:14:19;99420.25;;;9.86;32.75
16331;BME280;8275;48.206;16.340;2023-03-03T00:16:49;99417.50;;;9.86;32.60
16331;BME280;8275;48.206;16.340;2023-03-03T00:19:18;99414.19;;;9.84;32.62
16331;BME280;8275;48.206;16.340;2023-03-03T00:21:49;99413.34;;;9.84;33.02
16331;BME280;8275;48.206;16.340;2023-03-03T00:24:21;99405.41;;;9.82;33.13
16331;BME280;8275;48.206;16.340;2023-03-03T00:26:53;99404.84;;;9.80;33.15
16331;BME280;8275;48.206;16.340;2023-03-03T00:29:32;99415.16;;;9.78;33.14
16331;BME280;8275;48.206;16.340;2023-03-03T00:32:24;99413.78;;;9.76;33.22
16331;BME280;8275;48.206;16.340;2023-03-03T00:34:54;99412.09;;;9.75;32.95
16331;BME280;8275;48.206;16.340;2023-03-03T00:37:30;99417.84;;;9.73;33.15
16331;BME280;8275;48.206;16.340;2023-03-03T00:40:15;99409.28;;;9.70;33.13
16331;BME280;8275;48.206;16.340;2023-03-03T00:42:50;99407.63;;;9.69;33.10
16331;BME280;8275;48.206;16.340;2023-03-03T00:45:32;99407.88;;;9.67;33.07
16331;BME280;8275;48.206;16.340;2023-03-03T00:48:27;99405.66;;;9.64;33.17
16331;BME280;8275;48.206;16.340;2023-03-03T00:50:57;99402.91;;;9.64;33.17
16331;BME280;8275;48.206;16.340;2023-03-03T00:53:27;99391.97;;;9.64;33.03
16331;BME280;8275;48.206;16.340;2023-03-03T00:55:56;99388.63;;;9.62;33.18
16331;BME280;8275;48.206;16.340;2023-03-03T00:58:26;99390.56;;;9.62;33.36
16331;BME280;8275;48.206;16.340;2023-03-03T01:00:55;99391.63;;;9.61;33.49
16331;BME280;8275;48.206;16.340;2023-03-03T01:03:26;99397.94;;;9.61;33.34
16331;BME280;8275;48.206;16.340;2023-03-03T01:05:54;99393.53;;;9.60;33.44
16331;BME280;8275;48.206;16.340;2023-03-03T01:08:23;99391.88;;;9.59;33.49
16331;BME280;8275;48.206;16.340;2023-03-03T01:10:55;99388.56;;;9.57;33.86
16331;BME280;8275;48.206;16.340;2023-03-03T01:13:29;99377.03;;;9.55;33.79
16331;BME280;8275;48.206;16.340;2023-03-03T01:15:58;99373.47;;;9.55;33.67
16331;BME280;8275;48.206;16.340;2023-03-03T01:18:28;99376.22;;;9.55;33.63
16331;BME280;8275;48.206;16.340;2023-03-03T01:20:56;99378.94;;;9.55;33.56
16331;BME280;8275;48.206;16.340;2023-03-03T01:23:25;99378.09;;;9.54;33.82
16331;BME280;8275;48.206;16.340;2023-03-03T01:25:53;99369.91;;;9.54;33.96
16331;BME280;8275;48.206;16.340;2023-03-03T01:28:22;99366.34;;;9.54;33.91
16331;BME280;8275;48.206;16.340;2023-03-03T01:30:52;99374.53;;;9.54;33.95
16331;BME280;8275;48.206;16.340;2023-03-03T01:33:21;99369.06;;;9.54;33.81
16331;BME280;8275;48.206;16.340;2023-03-03T01:35:49;99370.97;;;9.53;34.07
16331;BME280;8275;48.206;16.340;2023-03-03T01:38:18;99377.53;;;9.52;33.88
16331;BME280;8275;48.206;16.340;2023-03-03T01:40:52;99370.66;;;9.50;34.05
16331;BME280;8275;48.206;16.340;2023-03-03T01:43:22;99381.59;;;9.50;34.14
16331;BME280;8275;48.206;16.340;2023-03-03T01:46:49;99375.19;;;9.44;34.46
16331;BME280;8275;48.206;16.340;2023-03-03T01:49:23;99370.44;;;9.40;34.00
16331;BME280;8275;48.206;16.340;2023-03-03T01:51:58;99377.59;;;9.41;34.40
16331;BME280;8275;48.206;16.340;2023-03-03T01:54:32;99366.66;;;9.41;34.14
16331;BME280;8275;48.206;16.340;2023-03-03T01:57:07;99368.28;;;9.42;34.38
16331;BME280;8275;48.206;16.340;2023-03-03T01:59:44;99368.28;;;9.42;34.25
16331;BME280;8275;48.206;16.340;2023-03-03T02:02:16;99364.50;;;9.43;34.37
16331;BME280;8275;48.206;16.340;2023-03-03T02:04:45;99369.50;;;9.46;34.17
16331;BME280;8275;48.206;16.340;2023-03-03T02:07:14;99366.50;;;9.47;34.58
16331;BME280;8275;48.206;16.340;2023-03-03T02:09:51;99362.44;;;9.50;34.42
16331;BME280;8275;48.206;16.340;2023-03-03T02:12:30;99365.50;;;9.53;34.11
16331;BME280;8275;48.206;16.340;2023-03-03T02:14:59;99363.13;;;9.57;34.42
16331;BME280;8275;48.206;16.340;2023-03-03T02:17:29;99358.81;;;9.61;34.23
16331;BME280;8275;48.206;16.340;2023-03-03T02:20:02;99359.16;;;9.64;34.40
16331;BME280;8275;48.206;16.340;2023-03-03T02:22:38;99358.41;;;9.69;34.48
16331;BME280;8275;48.206;16.340;2023-03-03T02:25:19;99357.88;;;9.72;34.40
16331;BME280;8275;48.206;16.340;2023-03-03T02:27:51;99352.75;;;9.75;34.34
16331;BME280;8275;48.206;16.340;2023-03-03T02:30:23;99357.72;;;9.78;34.60
16331;BME280;8275;48.206;16.340;2023-03-03T02:32:52;99350.91;;;9.81;34.37
16331;BME280;8275;48.206;16.340;2023-03-03T02:35:33;99348.78;;;9.83;34.25
16331;BME280;8275;48.206;16.340;2023-03-03T02:38:12;99354.25;;;9.83;34.17
16331;BME280;8275;48.206;16.340;2023-03-03T02:40:50;99352.31;;;9.83;34.24
16331;BME280;8275;48.206;16.340;2023-03-03T02:43:24;99346.63;;;9.85;34.09
16331;BME280;8275;48.206;16.340;2023-03-03T02:45:55;99353.16;;;9.84;34.36
16331;BME280;8275;48.206;16.340;2023-03-03T02:48:24;99340.59;;;9.83;34.17
16331;BME280;8275;48.206;16.340;2023-03-03T02:50:52;99339.75;;;9.82;34.49
16331;BME280;8275;48.206;16.340;2023-03-03T02:53:20;99340.81;;;9.81;34.29
16331;BME280;8275;48.206;16.340;2023-03-03T02:55:49;99342.72;;;9.81;34.33
16331;BME280;8275;48.206;16.340;2023-03-03T02:58:17;99341.06;;;9.80;34.52
16331;BME280;8275;48.206;16.340;2023-03-03T03:00:47;99342.97;;;9.79;34.33
16331;BME280;8275;48.206;16.340;2023-03-03T03:03:16;99345.44;;;9.81;34.60
16331;BME280;8275;48.206;16.340;2023-03-03T03:05:44;99337.25;;;9.81;34.32
16331;BME280;8275;48.206;16.340;2023-03-03T03:08:13;99346.84;;;9.83;34.67
16331;BME280;8275;48.206;16.340;2023-03-03T03:10:41;99342.78;;;9.86;34.72
16331;BME280;8275;48.206;16.340;2023-03-03T03:13:10;99347.19;;;9.87;34.37
16331;BME280;8275;48.206;16.340;2023-03-03T03:15:39;99345.03;;;9.89;34.52
16331;BME280;8275;48.206;16.340;2023-03-03T03:18:08;99345.63;;;9.91;34.86
16331;BME280;8275;48.206;16.340;2023-03-03T03:20:38;99331.69;;;9.93;34.53
16331;BME280;8275;48.206;16.340;2023-03-03T03:23:08;99339.66;;;9.94;34.66
16331;BME280;8275;48.206;16.340;2023-03-03T03:25:37;99333.34;;;9.94;34.34
16331;BME280;8275;48.206;16.340;2023-03-03T03:28:11;99329.78;;;9.93;34.27
16331;BME280;8275;48.206;16.340;2023-03-03T03:30:40;99331.09;;;9.90;34.37
16331;BME280;8275;48.206;16.340;2023-03-03T03:33:12;99319.00;;;9.86;34.73
16331;BME280;8275;48.206;16.340;2023-03-03T03:35:40;99327.97;;;9.82;34.74
16331;BME280;8275;48.206;16.340;2023-03-03T03:38:12;99325.41;;;9.75;34.39
16331;BME280;8275;48.206;16.340;2023-03-03T03:40:41;99326.91;;;9.66;34.64
16331;BME280;8275;48.206;16.340;2023-03-03T03:43:10;99327.31;;;9.58;34.69
16331;BME280;8275;48.206;16.340;2023-03-03T03:45:41;99320.84;;;9.48;34.85
16331;BME280;8275;48.206;16.340;2023-03-03T03:48:11;99320.66;;;9.38;34.50
16331;BME280;8275;48.206;16.340;2023-03-03T03:50:40;99324.88;;;9.29;34.85
16331;BME280;8275;48.206;16.340;2023-03-03T03:53:08;99328.59;;;9.23;34.89
16331;BME280;8275;48.206;16.340;2023-03-03T03:55:37;99333.63;;;9.14;34.82
16331;BME280;8275;48.206;16.340;2023-03-03T03:58:05;99331.88;;;9.08;34.99
16331;BME280;8275;48.206;16.340;2023-03-03T04:00:34;99334.78;;;9.01;35.02
16331;BME280;8275;48.206;16.340;2023-03-03T04:03:02;99333.03;;;8.95;35.01
16331;BME280;8275;48.206;16.340;2023-03-03T04:05:32;99329.34;;;8.90;35.18
16331;BME280;8275;48.206;16.340;2023-03-03T04:08:01;99330.09;;;8.85;35.05
16331;BME280;8275;48.206;16.340;2023-03-03T04:10:30;99331.88;;;8.80;35.16
16331;BME280;8275;48.206;16.340;2023-03-03T04:12:58;99340.00;;;8.75;35.27
16331;BME280;8275;48.206;16.340;2023-03-03T04:15:27;99347.84;;;8.71;35.34
16331;BME280;8275;48.206;16.340;2023-03-03T04:17:55;99351.03;;;8.68;35.27
16331;BME280;8275;48.206;16.340;2023-03-03T04:20:24;99353.44;;;8.65;35.40
16331;BME280;8275;48.206;16.340;2023-03-03T04:22:54;99352.03;;;8.62;35.48
16331;BME280;8275;48.206;16.340;2023-03-03T04:25:22;99353.31;;;8.60;35.47
16331;BME280;8275;48.206;16.340;2023-03-03T04:27:51;99346.69;;;8.56;35.52
16331;BME280;8275;48.206;16.340;2023-03-03T04:30:20;99348.84;;;8.54;35.58
16331;BME280;8275;48.206;16.340;2023-03-03T04:32:49;99360.81;;;8.53;35.72
16331;BME280;8275;48.206;16.340;2023-03-03T04:35:19;99346.84;;;8.49;35.61
16331;BME280;8275;48.206;16.340;2023-03-03T04:37:47;99354.66;;;8.45;35.61
16331;BME280;8275;48.206;16.340;2023-03-03T04:40:18;99346.72;;;8.44;35.70
16331;BME280;8275;48.206;16.340;2023-03-03T04:42:46;99355.97;;;8.43;35.74
16331;BME280;8275;48.206;16.340;2023-03-03T04:45:15;99360.63;;;8.42;35.95
16331;BME280;8275;48.206;16.340;2023-03-03T04:47:43;99350.75;;;8.41;35.90
16331;BME280;8275;48.206;16.340;2023-03-03T04:50:12;99352.66;;;8.41;35.79
16331;BME280;8275;48.206;16.340;2023-03-03T04:52:40;99351.00;;;8.40;36.04
16331;BME280;8275;48.206;16.340;2023-03-03T04:55:09;99347.69;;;8.38;35.99
16331;BME280;8275;48.206;16.340;2023-03-03T04:57:39;99346.63;;;8.39;36.04
16331;BME280;8275;48.206;16.340;2023-03-03T05:00:10;99346.88;;;8.37;36.19
16331;BME280;8275;48.206;16.340;2023-03-03T05:02:39;99355.88;;;8.38;36.10
16331;BME280;8275;48.206;16.340;2023-03-03T05:05:09;99354.47;;;8.35;36.11
16331;BME280;8275;48.206;16.340;2023-03-03T05:07:37;99359.09;;;8.35;36.18
16331;BME280;8275;48.206;16.340;2023-03-03T05:10:07;99353.84;;;8.33;36.20
16331;BME280;8275;48.206;16.340;2023-03-03T05:12:36;99345.66;;;8.33;36.21
16331;BME280;8275;48.206;16.340;2023-03-03T05:15:07;99354.94;;;8.32;36.30
16331;BME280;8275;48.206;16.340;2023-03-03T05:17:36;99352.44;;;8.31;36.20
16331;BME280;8275;48.206;16.340;2023-03-03T05:20:06;99354.56;;;8.29;36.51
16331;BME280;8275;48.206;16.340;2023-03-03T05:22:36;99363.84;;;8.28;36.37
16331;BME280;8275;48.206;16.340;2023-03-03T05:25:06;99353.19;;;8.26;36.51
16331;BME280;8275;48.206;16.340;2023-03-03T05:27:35;99363.44;;;8.24;36.37
16331;BME280;8275;48.206;16.340;2023-03-03T05:30:08;99356.81;;;8.20;36.68
16331;BME280;8275;48.206;16.340;2023-03-03T05:32:37;99367.13;;;8.18;36.35
16331;BME280;8275;48.206;16.340;2023-03-03T05:35:06;99364.06;;;8.15;36.41
16331;BME280;8275;48.206;16.340;2023-03-03T05:37:35;99377.94;;;8.13;36.51
16331;BME280;8275;48.206;16.340;2023-03-03T05:40:08;99383.03;;;8.10;36.50
16331;BME280;8275;48.206;16.340;2023-03-03T05:42:36;99386.81;;;8.09;36.68
16331;BME280;8275;48.206;16.340;2023-03-03T05:45:08;99388.13;;;8.06;36.63
16331;BME280;8275;48.206;16.340;2023-03-03T05:47:37;99385.41;;;8.06;36.47
16331;BME280;8275;48.206;16.340;2023-03-03T05:50:06;99386.25;;;8.07;36.64
16331;BME280;8275;48.206;16.340;2023-03-03T05:52:35;99393.38;;;8.08;37.05
16331;BME280;8275;48.206;16.340;2023-03-03T05:55:04;99394.78;;;8.10;36.82
16331;BME280;8275;48.206;16.340;2023-03-03T05:57:33;99400.59;;;8.14;36.76
16331;BME280;8275;48.206;16.340;2023-03-03T06:00:02;99408.06;;;8.18;36.80
16331;BME280;8275;48.206;16.340;2023-03-03T06:02:33;99405.47;;;8.23;36.88
16331;BME280;8275;48.206;16.340;2023-03-03T06:05:02;99402.06;;;8.28;36.83
16331;BME280;8275;48.206;16.340;2023-03-03T06:07:30;99412.84;;;8.34;36.97
16331;BME280;8275;48.206;16.340;2023-03-03T06:09:59;99410.81;;;8.41;36.79
16331;BME280;8275;48.206;16.340;2023-03-03T06:12:27;99410.69;;;8.48;36.99
16331;BME280;8275;48.206;16.340;2023-03-03T06:14:56;99409.50;;;8.56;36.70
16331;BME280;8275;48.206;16.340;2023-03-03T06:17:24;99408.53;;;8.62;36.81
16331;BME280;8275;48.206;16.340;2023-03-03T06:19:54;99422.03;;;8.68;36.84
16331;BME280;8275;48.206;16.340;2023-03-03T06:22:23;99418.69;;;8.78;36.94
16331;BME280;8275;48.206;16.340;2023-03-03T06:24:51;99419.66;;;8.83;36.98
16331;BME280;8275;48.206;16.340;2023-03-03T06:27:20;99424.97;;;8.90;36.90
16331;BME280;8275;48.206;16.340;2023-03-03T06:29:48;99424.84;;;8.96;36.78
16331;BME280;8275;48.206;16.340;2023-03-03T06:32:17;99419.00;;;9.04;36.92
16331;BME280;8275;48.206;16.340;2023-03-03T06:34:45;99420.28;;;9.13;36.98
16331;BME280;8275;48.206;16.340;2023-03-03T06:37:15;99418.56;;;9.24;36.64
16331;BME280;8275;48.206;16.340;2023-03-03T06:39:44;99428.03;;;9.33;36.81
16331;BME280;8275;48.206;16.340;2023-03-03T06:42:12;99426.06;;;9.45;36.66
16331;BME280;8275;48.206;16.340;2023-03-03T06:44:40;99433.63;;;9.55;36.55
16331;BME280;8275;48.206;16.340;2023-03-03T06:47:09;99432.16;;;9.64;36.35
16331;BME280;8275;48.206;16.340;2023-03-03T06:49:37;99437.22;;;9.72;36.29
16331;BME280;8275;48.206;16.340;2023-03-03T06:52:12;99438.97;;;9.78;36.29
16331;BME280;8275;48.206;16.340;2023-03-03T06:54:42;99436.34;;;9.83;36.15
16331;BME280;8275;48.206;16.340;2023-03-03T06:57:17;99437.50;;;9.87;36.27
16331;BME280;8275;48.206;16.340;2023-03-03T06:59:52;99439.50;;;9.92;36.32
16331;BME280;8275;48.206;16.340;2023-03-03T07:02:22;99428.38;;;9.98;36.15
16331;BME280;8275;48.206;16.340;2023-03-03T07:04:52;99437.50;;;10.04;36.23
16331;BME280;8275;48.206;16.340;2023-03-03T07:07:23;99429.94;;;10.11;36.18
16331;BME280;8275;48.206;16.340;2023-03-03T07:09:55;99427.09;;;10.17;35.76
16331;BME280;8275;48.206;16.340;2023-03-03T07:12:27;99433.22;;;10.24;35.69
16331;BME280;8275;48.206;16.340;2023-03-03T07:15:11;99442.66;;;10.33;35.67
16331;BME280;8275;48.206;16.340;2023-03-03T07:17:44;99441.97;;;10.43;35.76
16331;BME280;8275;48.206;16.340;2023-03-03T07:20:20;99438.91;;;10.56;35.75
16331;BME280;8275;48.206;16.340;2023-03-03T07:22:50;99436.88;;;10.68;35.48
16331;BME280;8275;48.206;16.340;2023-03-03T07:25:29;99444.91;;;10.75;35.58
16331;BME280;8275;48.206;16.340;2023-03-03T07:28:09;99452.59;;;10.78;35.35
16331;BME280;8275;48.206;16.340;2023-03-03T07:30:40;99458.69;;;10.80;35.32
16331;BME280;8275;48.206;16.340;2023-03-03T07:33:22;99459.50;;;10.80;35.16
16331;BME280;8275;48.206;16.340;2023-03-03T07:35:54;99466.91;;;10.80;35.02
16331;BME280;8275;48.206;16.340;2023-03-03T07:38:29;99473.19;;;10.80;34.98
16331;BME280;8275;48.206;16.340;2023-03-03T07:41:02;99476.78;;;10.81;35.33
16331;BME280;8275;48.206;16.340;2023-03-03T07:43:37;99473.28;;;10.85;35.09
16331;BME280;8275;48.206;16.340;2023-03-03T07:46:29;99477.16;;;10.89;35.00
16331;BME280;8275;48.206;16.340;2023-03-03T07:48:58;99487.97;;;10.96;34.80
16331;BME280;8275;48.206;16.340;2023-03-03T07:51:34;99486.09;;;11.01;34.66
16331;BME280;8275;48.206;16.340;2023-03-03T07:54:33;99489.41;;;11.03;34.55
16331;BME280;8275;48.206;16.340;2023-03-03T07:57:14;99485.06;;;11.07;34.67
16331;BME280;8275;48.206;16.340;2023-03-03T07:59:48;99487.09;;;11.12;34.70
16331;BME280;8275;48.206;16.340;2023-03-03T08:02:35;99477.19;;;11.33;33.89
16331;BME280;8275;48.206;16.340;2023-03-03T08:05:31;99475.06;;;11.40;34.15
16331;BME280;8275;48.206;16.340;2023-03-03T08:08:27;99473.00;;;11.52;34.19
16331;BME280;8275;48.206;16.340;2023-03-03T08:10:58;99477.00;;;11.66;34.20
16331;BME280;8275;48.206;16.340;2023-03-03T08:13:37;99472.81;;;11.80;33.79
16331;BME280;8275;48.206;16.340;2023-03-03T08:16:29;99475.44;;;11.96;33.87
16331;BME280;8275;48.206;16.340;2023-03-03T08:19:04;99464.34;;;12.13;33.51
16331;BME280;8275;48.206;16.340;2023-03-03T08:21:34;99454.31;;;12.29;33.73
16331;BME280;8275;48.206;16.340;2023-03-03T08:24:04;99460.47;;;12.46;33.63
16331;BME280;8275;48.206;16.340;2023-03-03T08:26:33;99464.44;;;12.65;33.26
16331;BME280;8275;48.206;16.340;2023-03-03T08:29:03;99455.75;;;12.83;33.21
16331;BME280;8275;48.206;16.340;2023-03-03T08:31:31;99455.69;;;13.20;31.69
16331;BME280;8275;48.206;16.340;2023-03-03T08:34:08;99462.63;;;13.32;32.22
16331;BME280;8275;48.206;16.340;2023-03-03T08:36:36;99468.72;;;13.50;32.35
16331;BME280;8275;48.206;16.340;2023-03-03T08:39:05;99470.69;;;13.59;31.81
16331;BME280;8275;48.206;16.340;2023-03-03T08:41:33;99468.28;;;13.83;31.10
16331;BME280;8275;48.206;16.340;2023-03-03T08:44:03;99465.81;;;13.91;31.51
16331;BME280;8275;48.206;16.340;2023-03-03T08:46:32;99466.09;;;14.05;31.60
16331;BME280;8275;48.206;16.340;2023-03-03T08:49:01;99466.94;;;14.21;31.57
16331;BME280;8275;48.206;16.340;2023-03-03T08:51:29;99464.75;;;14.33;31.36
16331;BME280;8275;48.206;16.340;2023-03-03T08:54:00;99470.53;;;14.46;31.41
16331;BME280;8275;48.206;16.340;2023-03-03T08:56:28;99470.00;;;14.59;31.25
16331;BME280;8275;48.206;16.340;2023-03-03T08:58:57;99461.69;;;14.69;31.01
16331;BME280;8275;48.206;16.340;2023-03-03T09:01:30;99468.28;;;14.78;30.88
16331;BME280;8275;48.206;16.340;2023-03-03T09:03:59;99468.56;;;14.87;30.50
16331;BME280;8275;48.206;16.340;2023-03-03T09:06:28;99476.81;;;14.92;30.30
16331;BME280;8275;48.206;16.340;2023-03-03T09:08:56;99478.19;;;14.95;30.09
16331;BME280;8275;48.206;16.340;2023-03-03T09:11:28;99474.06;;;14.92;29.99
16331;BME280;8275;48.206;16.340;2023-03-03T09:14:05;99480.69;;;14.91;29.74
16331;BME280;8275;48.206;16.340;2023-03-03T09:16:38;99480.94;;;14.90;29.64
16331;BME280;8275;48.206;16.340;2023-03-03T09:19:23;99491.44;;;14.93;29.75
16331;BME280;8275;48.206;16.340;2023-03-03T09:21:54;99485.91;;;14.98;29.77
16331;BME280;8275;48.206;16.340;2023-03-03T09:24:28;99491.16;;;14.99;29.67
16331;BME280;8275;48.206;16.340;2023-03-03T09:26:57;99504.13;;;14.99;29.67
16331;BME280;8275;48.206;16.340;2023-03-03T09:29:28;99504.94;;;14.94;29.26
16331;BME280;8275;48.206;16.340;2023-03-03T09:32:00;99505.53;;;14.91;29.44
16331;BME280;8275;48.206;16.340;2023-03-03T09:34:38;99505.53;;;14.86;29.52
16331;BME280;8275;48.206;16.340;2023-03-03T09:37:20;99505.28;;;14.83;29.43
16331;BME280;8275;48.206;16.340;2023-03-03T09:39:51;99507.75;;;14.84;29.41
16331;BME280;8275;48.206;16.340;2023-03-03T09:42:50;99509.94;;;14.82;29.54
16331;BME280;8275;48.206;16.340;2023-03-03T09:45:49;99505.81;;;14.85;29.49
16331;BME280;8275;48.206;16.340;2023-03-03T09:48:43;99510.50;;;14.84;29.07
16331;BME280;8275;48.206;16.340;2023-03-03T09:51:45;99502.22;;;14.79;29.31
16331;BME280;8275;48.206;16.340;2023-03-03T09:54:33;99501.94;;;14.81;29.23
16331;BME280;8275;48.206;16.340;2023-03-03T09:57:10;99506.06;;;14.83;29.27
16331;BME280;8275;48.206;16.340;2023-03-03T10:00:00;99500.84;;;14.82;29.34
16331;BME280;8275;48.206;16.340;2023-03-03T10:02:42;99503.06;;;14.80;29.31
16331;BME280;8275;48.206;16.340;2023-03-03T10:05:23;99510.50;;;14.79;29.34
16331;BME280;8275;48.206;16.340;2023-03-03T10:08:16;99510.25;;;14.75;29.05
16331;BME280;8275;48.206;16.340;2023-03-03T10:10:59;99504.16;;;14.73;29.18
16331;BME280;8275;48.206;16.340;2023-03-03T10:13:52;99492.59;;;14.66;29.11
16331;BME280;8275;48.206;16.340;2023-03-03T10:16:49;99499.50;;;14.64;29.21
16331;BME280;8275;48.206;16.340;2023-03-03T10:19:35;99491.78;;;14.61;28.87
16331;BME280;8275;48.206;16.340;2023-03-03T10:22:21;99481.88;;;14.55;29.07
16331;BME280;8275;48.206;16.340;2023-03-03T10:25:13;99481.56;;;14.51;29.11
16331;BME280;8275;48.206;16.340;2023-03-03T10:28:12;99481.03;;;14.54;29.21
16331;BME280;8275;48.206;16.340;2023-03-03T10:30:55;99483.50;;;14.56;29.10
16331;BME280;8275;48.206;16.340;2023-03-03T10:33:44;99466.66;;;14.57;28.99
16331;BME280;8275;48.206;16.340;2023-03-03T10:36:45;99475.78;;;14.58;29.10
16331;BME280;8275;48.206;16.340;2023-03-03T10:39:41;99466.41;;;14.59;28.84
16331;BME280;8275;48.206;16.340;2023-03-03T10:42:29;99466.13;;;14.60;28.86
16331;BME280;8275;48.206;16.340;2023-03-03T10:45:38;99439.38;;;14.61;29.10
16331;BME280;8275;48.206;16.340;2023-03-03T10:48:31;99434.09;;;14.80;29.14
16331;BME280;8275;48.206;16.340;2023-03-03T10:51:20;99427.66;;;15.14;29.29
16331;BME280;8275;48.206;16.340;2023-03-03T10:54:02;99420.84;;;15.56;28.65
16331;BME280;8275;48.206;16.340;2023-03-03T10:56:44;99430.75;;;16.00;28.39
16331;BME280;8275;48.206;16.340;2023-03-03T10:59:43;99433.69;;;16.48;27.99
16331;BME280;8275;48.206;16.340;2023-03-03T11:02:20;99433.28;;;16.88;27.54
16331;BME280;8275;48.206;16.340;2023-03-03T11:05:15;99433.34;;;17.30;27.02
16331;BME280;8275;48.206;16.340;2023-03-03T11:07:50;99418.69;;;17.72;26.37
16331;BME280;8275;48.206;16.340;2023-03-03T11:10:34;99428.63;;;18.10;26.11
16331;BME280;8275;48.206;16.340;2023-03-03T11:13:14;99419.66;;;18.51;25.80
16331;BME280;8275;48.206;16.340;2023-03-03T11:19:08;99421.06;;;19.21;24.94
16331;BME280;8275;48.206;16.340;2023-03-03T11:21:46;99428.78;;;19.51;24.35
16331;BME280;8275;48.206;16.340;2023-03-03T11:24:49;99418.03;;;19.72;23.92
16331;BME280;8275;48.206;16.340;2023-03-03T11:27:32;99403.16;;;19.90;23.67
16331;BME280;8275;48.206;16.340;2023-03-03T11:30:30;99412.97;;;20.10;23.51
16331;BME280;8275;48.206;16.340;2023-03-03T11:33:05;99408.97;;;20.38;23.52
16331;BME280;8275;48.206;16.340;2023-03-03T11:35:43;99398.47;;;20.66;23.10
16331;BME280;8275;48.206;16.340;2023-03-03T11:38:37;99397.66;;;20.96;23.15
16331;BME280;8275;48.206;16.340;2023-03-03T11:41:16;99393.53;;;21.24;22.69
16331;BME280;8275;48.206;16.340;2023-03-03T11:43:50;99381.97;;;21.56;21.69
16331;BME280;8275;48.206;16.340;2023-03-03T11:46:25;99383.63;;;21.83;22.06
16331;BME280;8275;48.206;16.340;2023-03-03T11:49:01;99372.50;;;22.09;21.41
16331;BME280;8275;48.206;16.340;2023-03-03T11:51:43;99366.41;;;22.32;20.67
16331;BME280;8275;48.206;16.340;2023-03-03T11:54:21;99369.13;;;22.50;20.75
16331;BME280;8275;48.206;16.340;2023-03-03T11:56:56;99362.69;;;22.75;20.31
16331;BME280;8275;48.206;16.340;2023-03-03T11:59:43;99356.31;;;23.03;20.38
16331;BME280;8275;48.206;16.340;2023-03-03T12:02:41;99358.84;;;23.34;20.44
16331;BME280;8275;48.206;16.340;2023-03-03T12:05:16;99354.22;;;23.59;19.82
16331;BME280;8275;48.206;16.340;2023-03-03T12:07:56;99347.69;;;23.76;19.14
16331;BME280;8275;48.206;16.340;2023-03-03T12:10:33;99342.88;;;23.97;19.38
16331;BME280;8275;48.206;16.340;2023-03-03T12:13:09;99337.41;;;24.21;19.44
16331;BME280;8275;48.206;16.340;2023-03-03T12:15:49;99335.72;;;24.40;19.06
16331;BME280;8275;48.206;16.340;2023-03-03T12:18:47;99329.34;;;24.64;18.99
16331;BME280;8275;48.206;16.340;2023-03-03T12:21:37;99327.56;;;24.92;18.86
16331;BME280;8275;48.206;16.340;2023-03-03T12:24:29;99323.00;;;25.12;18.40
16331;BME280;8275;48.206;16.340;2023-03-03T12:27:13;99326.63;;;25.37;18.45
16331;BME280;8275;48.206;16.340;2023-03-03T12:29:58;99320.66;;;25.38;17.41
16331;BME280;8275;48.206;16.340;2023-03-03T12:32:50;99312.31;;;25.42;17.57
16331;BME280;8275;48.206;16.340;2023-03-03T12:35:33;99308.97;;;25.48;16.86
16331;BME280;8275;48.206;16.340;2023-03-03T12:38:12;99317.38;;;25.36;16.74
16331;BME280;8275;48.206;16.340;2023-03-03T12:40:48;99305.25;;;25.08;16.99
16331;BME280;8275;48.206;16.340;2023-03-03T12:43:34;99306.44;;;25.07;17.33
16331;BME280;8275;48.206;16.340;2023-03-03T12:46:12;99310.03;;;25.20;16.79
16331;BME280;8275;48.206;16.340;2023-03-03T12:48:45;99293.66;;;25.22;16.07
16331;BME280;8275;48.206;16.340;2023-03-03T12:51:30;99298.59;;;25.13;16.07
16331;BME280;8275;48.206;16.340;2023-03-03T12:54:33;99293.91;;;25.17;16.58
16331;BME280;8275;48.206;16.340;2023-03-03T12:57:16;99288.72;;;25.43;16.98
16331;BME280;8275;48.206;16.340;2023-03-03T13:00:02;99292.44;;;25.71;16.63
16331;BME280;8275;48.206;16.340;2023-03-03T13:02:48;99285.63;;;26.12;16.68
16331;BME280;8275;48.206;16.340;2023-03-03T13:05:28;99289.03;;;26.33;15.99
16331;BME280;8275;48.206;16.340;2023-03-03T13:08:33;99283.88;;;26.51;15.71
16331;BME280;8275;48.206;16.340;2023-03-03T13:11:32;99269.66;;;26.59;15.72
16331;BME280;8275;48.206;16.340;2023-03-03T13:14:15;99279.19;;;26.70;15.57
16331;BME280;8275;48.206;16.340;2023-03-03T13:16:58;99266.16;;;26.93;15.70
16331;BME280;8275;48.206;16.340;2023-03-03T13:19:33;99271.53;;;27.17;15.31
16331;BME280;8275;48.206;16.340;2023-03-03T13:22:09;99265.50;;;27.35;15.33
16331;BME280;8275;48.206;16.340;2023-03-03T13:24:53;99260.81;;;27.39;15.08
16331;BME280;8275;48.206;16.340;2023-03-03T13:27:26;99254.06;;;27.43;15.16
16331;BME280;8275;48.206;16.340;2023-03-03T13:30:02;99254.34;;;27.38;15.19
16331;BME280;8275;48.206;16.340;2023-03-03T13:32:41;99254.81;;;27.40;15.01
16331;BME280;8275;48.206;16.340;2023-03-03T13:35:23;99259.47;;;27.52;15.28
16331;BME280;8275;48.206;16.340;2023-03-03T13:37:57;99244.00;;;27.61;15.28
16331;BME280;8275;48.206;16.340;2023-03-03T13:40:37;99253.59;;;27.76;14.89
16331;BME280;8275;48.206;16.340;2023-03-03T13:43:14;99241.66;;;27.82;14.50
16331;BME280;8275;48.206;16.340;2023-03-03T13:45:56;99255.66;;;27.60;14.57
16331;BME280;8275;48.206;16.340;2023-03-03T13:49:18;99247.56;;;27.58;15.28
16331;BME280;8275;48.206;16.340;2023-03-03T13:51:56;99250.97;;;27.67;14.94
16331;BME280;8275;48.206;16.340;2023-03-03T13:54:57;99251.25;;;27.43;14.88